Time;durP1;ratioP1;P1;durP2;ratioP2;P2;SDS_P1;SDS_P2;PMS_P1;PMS_P2;Temp;Humidity;BMP_temperature;BMP_pressure;BME280_temperature;BME280_humidity;BME280_pressure;Samples;Min_cycle;Max_cycle;Signal;HPM_P1;HPM_P2
2023/06/25 00:01:24;;;;;;;9.95;7.82;;;22.20;99.90;;;;;;4955110;29;20494;-49
2023/06/25 00:03:51;;;;;;;9.65;8.55;;;22.20;99.90;;;;;;4953741;29;20501;-51
2023/06/25 00:06:19;;;;;;;9.95;8.40;;;22.10;99.90;;;;;;4954907;29;20431;-48
2023/06/25 00:08:45;;;;;;;11.35;8.63;;;22.10;99.90;;;;;;4921866;29;20118;-50
2023/06/25 00:11:11;;;;;;;10.82;8.25;;;22.10;99.90;;;;;;4954742;29;20125;-47
2023/06/25 00:13:37;;;;;;;9.85;8.20;;;22.10;99.90;;;;;;4954090;29;20031;-50
2023/06/25 00:16:02;;;;;;;11.18;8.40;;;22.00;99.90;;;;;;4937431;29;20058;-50
2023/06/25 00:18:28;;;;;;;10.40;7.90;;;21.90;99.90;;;;;;4954740;28;20078;-49
2023/06/25 00:20:54;;;;;;;10.93;8.32;;;21.90;99.90;;;;;;4954581;29;20047;-49
2023/06/25 00:23:20;;;;;;;11.77;8.45;;;21.90;99.90;;;;;;4954179;29;20039;-48
2023/06/25 00:25:46;;;;;;;9.60;8.18;;;21.80;99.90;;;;;;4954585;29;20778;-48
2023/06/25 00:28:11;;;;;;;10.57;9.00;;;21.80;99.90;;;;;;4954017;29;20087;-50
2023/06/25 00:30:37;;;;;;;11.23;8.13;;;21.70;99.90;;;;;;4954496;29;20386;-47
2023/06/25 00:33:03;;;;;;;9.75;8.75;;;21.70;99.90;;;;;;4954110;29;20106;-51
2023/06/25 00:35:43;;;;;;;11.38;8.70;;;21.60;99.90;;;;;;4954412;29;20482;-46
2023/06/25 00:38:09;;;;;;;11.02;8.57;;;21.50;99.90;;;;;;4954413;29;20082;-48
2023/06/25 00:40:35;;;;;;;11.07;8.88;;;21.50;99.90;;;;;;4954410;29;20486;-51
2023/06/25 00:43:03;;;;;;;9.63;8.15;;;21.50;99.90;;;;;;4953432;29;20220;-51
2023/06/25 00:45:29;;;;;;;13.05;9.48;;;21.50;99.90;;;;;;4954119;29;20065;-49
2023/06/25 00:47:55;;;;;;;12.00;9.13;;;21.40;99.90;;;;;;4954191;29;20047;-49
2023/06/25 00:50:21;;;;;;;10.10;8.77;;;21.40;99.90;;;;;;4936645;29;20047;-50
2023/06/25 00:52:51;;;;;;;10.90;8.90;;;21.50;99.90;;;;;;4954032;29;20506;-49
2023/06/25 00:55:19;;;;;;;10.98;8.70;;;21.40;99.90;;;;;;4936691;29;20150;-50
2023/06/25 00:57:44;;;;;;;10.73;9.45;;;21.40;99.90;;;;;;4953649;29;20510;-49
2023/06/25 01:00:14;;;;;;;11.57;9.63;;;21.30;99.90;;;;;;4953052;29;20039;-48
2023/06/25 01:03:03;;;;;;;11.32;8.98;;;21.30;99.90;;;;;;4954137;29;20039;-51
2023/06/25 01:05:45;;;;;;;12.55;8.63;;;21.30;99.90;;;;;;4952033;29;20050;-49
2023/06/25 01:08:11;;;;;;;12.50;8.93;;;21.30;99.90;;;;;;4953783;29;20118;-47
2023/06/25 01:10:40;;;;;;;10.00;8.80;;;21.20;99.90;;;;;;4953724;29;20399;-48
2023/06/25 01:13:06;;;;;;;14.93;9.88;;;21.20;99.90;;;;;;4953118;28;20390;-49
2023/06/25 01:15:32;;;;;;;13.57;9.50;;;21.20;99.90;;;;;;4953785;29;20058;-45
2023/06/25 01:17:59;;;;;;;12.13;9.20;;;21.10;99.90;;;;;;4936095;29;20082;-48
2023/06/25 01:20:27;;;;;;;11.55;9.60;;;21.10;99.90;;;;;;4953742;29;20095;-50
2023/06/25 01:22:56;;;;;;;12.55;9.55;;;21.10;99.90;;;;;;4953389;29;20035;-50
2023/06/25 01:25:23;;;;;;;12.75;9.75;;;21.00;99.90;;;;;;4935922;29;20035;-48
2023/06/25 01:27:51;;;;;;;11.15;9.18;;;21.00;99.90;;;;;;4953380;29;20607;-48
2023/06/25 01:30:18;;;;;;;11.27;8.85;;;21.00;99.90;;;;;;4951975;28;20027;-50
2023/06/25 01:32:44;;;;;;;10.65;9.18;;;20.90;99.90;;;;;;4953200;29;20053;-48
2023/06/25 01:35:14;;;;;;;12.32;10.10;;;20.90;99.90;;;;;;4953211;29;20118;-48
2023/06/25 01:37:40;;;;;;;12.52;10.05;;;20.80;99.90;;;;;;4953017;29;20047;-47
2023/06/25 01:40:09;;;;;;;12.10;9.82;;;20.80;99.90;;;;;;4952971;29;20051;-51
2023/06/25 01:42:36;;;;;;;11.88;10.50;;;20.70;99.90;;;;;;4952907;29;20539;-48
2023/06/25 01:45:02;;;;;;;13.90;10.50;;;20.70;99.90;;;;;;4935260;29;20052;-47
2023/06/25 01:47:28;;;;;;;12.15;10.80;;;20.70;99.90;;;;;;4953300;29;20451;-46
2023/06/25 01:49:53;;;;;;;13.65;11.20;;;20.60;99.90;;;;;;4952964;29;20035;-50
2023/06/25 01:52:19;;;;;;;14.57;11.18;;;20.50;99.90;;;;;;4953225;28;20047;-49
2023/06/25 01:54:46;;;;;;;14.05;11.70;;;20.50;99.90;;;;;;4952947;29;20102;-49
2023/06/25 01:57:12;;;;;;;13.07;10.98;;;20.50;99.90;;;;;;4952934;29;20125;-52
2023/06/25 01:59:38;;;;;;;13.68;11.05;;;20.40;99.90;;;;;;4935295;29;20083;-47
2023/06/25 02:02:04;;;;;;;13.48;11.40;;;20.40;99.90;;;;;;4953091;29;20082;-51
2023/06/25 02:04:29;;;;;;;14.82;12.00;;;20.30;99.90;;;;;;4952229;29;20074;-49
2023/06/25 02:06:55;;;;;;;13.30;10.85;;;20.30;99.90;;;;;;4952768;29;20078;-49
2023/06/25 02:09:22;;;;;;;14.38;11.20;;;20.30;99.90;;;;;;4952488;29;20487;-49
2023/06/25 02:11:48;;;;;;;14.82;12.68;;;20.20;99.90;;;;;;4952616;29;20448;-50
2023/06/25 02:14:14;;;;;;;14.02;12.18;;;20.20;99.90;;;;;;4952189;29;20035;-48
2023/06/25 02:16:39;;;;;;;15.57;12.15;;;20.20;99.90;;;;;;4952620;29;20098;-50
2023/06/25 02:19:05;;;;;;;14.93;11.32;;;20.20;99.90;;;;;;4952512;29;20038;-47
2023/06/25 02:21:31;;;;;;;14.52;12.25;;;20.20;99.90;;;;;;4935332;29;20075;-48
2023/06/25 02:23:56;;;;;;;15.73;11.80;;;20.10;99.90;;;;;;4952143;29;20117;-50
2023/06/25 02:26:22;;;;;;;15.75;12.32;;;20.10;99.90;;;;;;4952877;29;20035;-47
2023/06/25 02:28:48;;;;;;;13.75;11.65;;;20.10;99.90;;;;;;4934949;29;20134;-50
2023/06/25 02:31:14;;;;;;;16.92;12.57;;;20.10;99.90;;;;;;4952269;29;20075;-51
2023/06/25 02:33:40;;;;;;;17.15;13.63;;;20.00;99.90;;;;;;4952448;29;20039;-49
2023/06/25 02:36:06;;;;;;;14.88;12.82;;;20.00;99.90;;;;;;4952766;29;20065;-49
2023/06/25 02:38:32;;;;;;;18.40;14.18;;;20.00;99.90;;;;;;4952498;29;20542;-48
2023/06/25 02:40:57;;;;;;;16.08;13.18;;;19.90;99.90;;;;;;4952409;28;20035;-51
2023/06/25 02:43:23;;;;;;;15.88;13.45;;;19.90;99.90;;;;;;4955299;29;20521;-49
2023/06/25 02:45:49;;;;;;;17.55;13.20;;;19.90;99.90;;;;;;4922823;29;20074;-48
2023/06/25 02:48:14;;;;;;;18.77;13.77;;;19.90;99.90;;;;;;4956307;29;20463;-48
2023/06/25 02:50:40;;;;;;;14.13;12.60;;;19.80;99.90;;;;;;4956367;29;20039;-51
2023/06/25 02:53:06;;;;;;;16.08;14.05;;;19.80;99.90;;;;;;4956209;29;20054;-51
2023/06/25 02:55:31;;;;;;;16.02;13.35;;;19.80;99.90;;;;;;4956119;29;20047;-50
2023/06/25 02:57:57;;;;;;;18.50;13.90;;;19.80;99.90;;;;;;4955806;29;20036;-48
2023/06/25 03:00:23;;;;;;;16.48;14.45;;;19.70;99.90;;;;;;4956248;29;20062;-48
2023/06/25 03:02:48;;;;;;;16.80;14.35;;;19.70;99.90;;;;;;4937542;29;20039;-49
2023/06/25 03:05:14;;;;;;;16.42;13.30;;;19.70;99.90;;;;;;4955758;29;20491;-49
2023/06/25 03:07:54;;;;;;;15.88;13.13;;;19.70;99.90;;;;;;4955814;29;20075;-47
2023/06/25 03:10:24;;;;;;;18.70;14.23;;;19.60;99.90;;;;;;4955553;29;20046;-49
2023/06/25 03:12:50;;;;;;;19.33;14.45;;;19.60;99.90;;;;;;4955463;29;20505;-48
2023/06/25 03:15:17;;;;;;;18.63;14.00;;;19.60;99.90;;;;;;4955674;29;20039;-49
2023/06/25 03:17:43;;;;;;;19.05;14.27;;;19.60;99.90;;;;;;4955518;29;20070;-49
2023/06/25 03:20:10;;;;;;;17.83;14.52;;;19.60;99.90;;;;;;4954911;29;20079;-50
2023/06/25 03:22:36;;;;;;;19.98;14.63;;;19.60;99.90;;;;;;4938198;29;20039;-49
2023/06/25 03:25:03;;;;;;;17.83;14.43;;;19.60;99.90;;;;;;4955502;29;20040;-51
2023/06/25 03:27:30;;;;;;;19.30;15.40;;;19.50;99.90;;;;;;4955365;29;20050;-50
2023/06/25 03:29:55;;;;;;;19.85;15.30;;;19.60;99.90;;;;;;4955232;29;20043;-48
2023/06/25 03:32:21;;;;;;;19.20;15.00;;;19.60;99.90;;;;;;4955547;29;20031;-50
2023/06/25 03:34:47;;;;;;;19.02;14.80;;;19.40;99.90;;;;;;4955469;29;20127;-49
2023/06/25 03:37:12;;;;;;;21.90;16.40;;;19.50;99.90;;;;;;4955416;29;20043;-48
2023/06/25 03:39:38;;;;;;;20.50;15.55;;;19.40;99.90;;;;;;4955149;29;20399;-47
2023/06/25 03:42:04;;;;;;;17.60;14.48;;;19.40;99.90;;;;;;4937920;29;20043;-50
2023/06/25 03:44:30;;;;;;;18.92;14.48;;;19.40;99.90;;;;;;4954522;29;20082;-50
2023/06/25 03:46:55;;;;;;;19.60;15.65;;;19.40;99.90;;;;;;4938115;29;20129;-51
2023/06/25 03:49:21;;;;;;;20.67;16.02;;;19.40;99.90;;;;;;4921589;29;20095;-48
2023/06/25 03:51:47;;;;;;;19.38;14.75;;;19.40;99.90;;;;;;4937867;29;20051;-51
2023/06/25 03:54:12;;;;;;;18.85;14.32;;;19.40;99.90;;;;;;4921484;28;20423;-47
2023/06/25 03:56:38;;;;;;;18.00;14.80;;;19.40;99.90;;;;;;4954846;28;20035;-48
2023/06/25 03:59:04;;;;;;;17.60;14.75;;;19.40;99.90;;;;;;4955090;28;20421;-49
2023/06/25 04:01:29;;;;;;;19.73;15.38;;;19.40;99.90;;;;;;4954811;28;20039;-46
2023/06/25 04:03:55;;;;;;;19.27;14.02;;;19.40;99.90;;;;;;4971220;28;20042;-45
2023/06/25 04:06:21;;;;;;;16.27;14.52;;;19.40;99.90;;;;;;4974280;28;20035;-47
2023/06/25 04:08:46;;;;;;;20.00;14.50;;;19.40;99.90;;;;;;4973823;28;20078;-51
2023/06/25 04:11:12;;;;;;;17.00;13.77;;;19.30;99.90;;;;;;4922916;28;20090;-49
2023/06/25 04:13:38;;;;;;;17.70;14.65;;;19.40;99.90;;;;;;4958290;28;20101;-48
2023/06/25 04:16:06;;;;;;;17.52;14.48;;;19.40;99.90;;;;;;4973993;28;20043;-47
2023/06/25 04:18:32;;;;;;;21.08;15.23;;;19.40;99.90;;;;;;4974080;28;20039;-48
2023/06/25 04:20:57;;;;;;;20.80;15.32;;;19.40;99.90;;;;;;4973973;28;20053;-49
2023/06/25 04:23:23;;;;;;;19.63;14.93;;;19.40;99.90;;;;;;4973824;28;20054;-48
2023/06/25 04:25:49;;;;;;;17.65;14.63;;;19.70;99.90;;;;;;4973766;28;20063;-49
2023/06/25 04:28:17;;;;;;;20.33;15.18;;;19.40;99.90;;;;;;4973948;28;20141;-48
2023/06/25 04:30:43;;;;;;;19.98;15.00;;;19.40;99.90;;;;;;4973994;28;20047;-49
2023/06/25 04:33:09;;;;;;;18.73;15.00;;;19.40;99.90;;;;;;4973549;28;20039;-50
2023/06/25 04:35:35;;;;;;;18.70;14.68;;;19.40;99.90;;;;;;4973751;28;20035;-50
2023/06/25 04:38:00;;;;;;;19.45;14.95;;;19.40;99.90;;;;;;4964507;28;20162;-48
2023/06/25 04:40:26;;;;;;;19.80;15.40;;;19.50;99.90;;;;;;4954497;28;20046;-47
2023/06/25 04:42:52;;;;;;;19.42;15.32;;;19.50;99.90;;;;;;4967085;28;20045;-49
2023/06/25 04:45:19;;;;;;;18.25;14.57;;;19.50;99.90;;;;;;4965900;28;20059;-48
2023/06/25 04:47:44;;;;;;;17.20;14.52;;;19.50;99.90;;;;;;4954239;28;20399;-48
2023/06/25 04:50:10;;;;;;;18.92;14.82;;;19.60;99.90;;;;;;4937150;28;20039;-48
2023/06/25 04:52:36;;;;;;;18.17;14.68;;;19.60;99.90;;;;;;4953883;28;20035;-48
2023/06/25 04:55:02;;;;;;;19.25;15.35;;;19.60;99.90;;;;;;4936993;28;20043;-45
2023/06/25 04:57:27;;;;;;;19.65;15.18;;;19.60;99.90;;;;;;4953654;28;20069;-51
2023/06/25 04:59:53;;;;;;;18.02;14.55;;;19.60;99.90;;;;;;4936859;28;20047;-50
2023/06/25 05:02:19;;;;;;;21.88;15.00;;;19.70;99.90;;;;;;4953361;28;20047;-49
2023/06/25 05:04:44;;;;;;;17.98;14.52;;;19.70;99.90;;;;;;4969231;28;20565;-47
2023/06/25 05:07:11;;;;;;;17.33;14.43;;;19.70;99.90;;;;;;4958822;28;20039;-49
2023/06/25 05:09:36;;;;;;;18.90;15.32;;;19.80;99.90;;;;;;4953749;28;20074;-46
2023/06/25 05:12:03;;;;;;;19.08;14.57;;;19.90;99.90;;;;;;4953602;28;20043;-48
2023/06/25 05:14:28;;;;;;;21.23;15.07;;;19.90;99.90;;;;;;4953463;28;20054;-49
2023/06/25 05:16:54;;;;;;;17.15;15.15;;;19.90;99.90;;;;;;4961751;28;20031;-49
2023/06/25 05:19:20;;;;;;;17.85;15.52;;;19.90;99.90;;;;;;4935376;28;20122;-48
2023/06/25 05:21:45;;;;;;;18.92;14.90;;;20.00;99.90;;;;;;4953177;28;20118;-46
2023/06/25 05:24:11;;;;;;;21.67;15.73;;;20.00;99.90;;;;;;4953452;28;20031;-48
2023/06/25 05:26:37;;;;;;;17.83;15.60;;;20.10;99.90;;;;;;4953466;28;20515;-45
2023/06/25 05:29:02;;;;;;;21.20;15.95;;;20.10;99.90;;;;;;4953740;28;20118;-49
2023/06/25 05:31:29;;;;;;;21.30;15.50;;;20.10;99.90;;;;;;4953206;28;20181;-51
2023/06/25 05:33:54;;;;;;;19.58;15.05;;;20.10;99.90;;;;;;4960638;28;20435;-51
2023/06/25 05:36:21;;;;;;;19.30;15.32;;;20.20;99.90;;;;;;4972520;28;20140;-47
2023/06/25 05:38:46;;;;;;;21.50;16.17;;;20.20;99.90;;;;;;4972156;28;20050;-49
2023/06/25 05:41:12;;;;;;;19.65;16.05;;;20.20;99.90;;;;;;4972574;28;20046;-48
2023/06/25 05:43:38;;;;;;;20.27;16.48;;;20.30;99.90;;;;;;4972047;28;20043;-48
2023/06/25 05:46:04;;;;;;;21.35;16.67;;;20.40;99.90;;;;;;4971924;28;20106;-51
2023/06/25 05:48:30;;;;;;;18.15;15.65;;;20.40;99.90;;;;;;4951602;28;20114;-49
2023/06/25 05:50:56;;;;;;;20.92;16.20;;;20.50;99.90;;;;;;4952923;28;20043;-48
2023/06/25 05:53:23;;;;;;;18.33;15.40;;;20.50;99.90;;;;;;4951961;28;20181;-47
2023/06/25 05:55:49;;;;;;;21.92;16.85;;;20.50;99.90;;;;;;4952536;28;20043;-46
2023/06/25 05:58:15;;;;;;;23.35;16.75;;;20.60;99.90;;;;;;4952974;28;20054;-45
2023/06/25 06:00:41;;;;;;;23.48;17.60;;;20.70;99.90;;;;;;4952961;28;20043;-48
2023/06/25 06:03:06;;;;;;;20.67;17.20;;;20.70;99.90;;;;;;4957548;28;20046;-49
2023/06/25 06:05:32;;;;;;;22.30;16.73;;;20.80;99.90;;;;;;4972279;28;20113;-47
2023/06/25 06:07:57;;;;;;;20.42;16.60;;;20.80;99.90;;;;;;4972034;28;20039;-48
2023/06/25 06:10:23;;;;;;;20.10;16.67;;;20.90;99.90;;;;;;4972109;28;20042;-49
2023/06/25 06:12:49;;;;;;;20.65;16.88;;;20.90;99.90;;;;;;4959354;28;20041;-47
2023/06/25 06:15:15;;;;;;;20.45;17.08;;;21.00;99.90;;;;;;4952528;28;20051;-47
2023/06/25 06:17:41;;;;;;;18.33;16.42;;;21.10;99.90;;;;;;4935075;28;20042;-48
2023/06/25 06:20:07;;;;;;;21.65;17.33;;;21.10;99.90;;;;;;4952471;28;20035;-46
2023/06/25 06:22:33;;;;;;;19.73;17.52;;;21.20;99.90;;;;;;4952155;28;20085;-49
2023/06/25 06:24:59;;;;;;;19.80;17.42;;;21.20;99.90;;;;;;4952393;28;20078;-48
2023/06/25 06:27:24;;;;;;;19.83;17.58;;;21.30;99.90;;;;;;4952708;28;20471;-51
2023/06/25 06:29:50;;;;;;;20.05;17.77;;;21.30;99.90;;;;;;4952607;28;20035;-50
2023/06/25 06:32:16;;;;;;;22.42;17.55;;;21.40;99.90;;;;;;4952686;28;20509;-46
2023/06/25 06:34:41;;;;;;;20.73;16.20;;;21.40;99.90;;;;;;4935183;28;20072;-49
2023/06/25 06:37:07;;;;;;;22.02;17.15;;;21.50;99.90;;;;;;4954602;28;20464;-49
2023/06/25 06:39:34;;;;;;;21.52;17.00;;;21.60;99.90;;;;;;4970155;28;20090;-48
2023/06/25 06:41:59;;;;;;;20.15;16.58;;;21.60;99.90;;;;;;4962778;28;20109;-48
2023/06/25 06:44:25;;;;;;;22.58;17.17;;;21.70;99.90;;;;;;4934839;28;20047;-50
2023/06/25 06:46:51;;;;;;;19.13;16.10;;;21.80;99.90;;;;;;4960123;28;20039;-49
2023/06/25 06:49:17;;;;;;;21.77;17.40;;;21.80;99.90;;;;;;4935282;28;20035;-51
2023/06/25 06:51:44;;;;;;;18.33;16.05;;;21.90;99.90;;;;;;4953212;28;20039;-48
2023/06/25 06:54:10;;;;;;;20.50;16.70;;;22.00;99.90;;;;;;4935200;28;20043;-49
2023/06/25 06:56:35;;;;;;;22.40;17.20;;;22.10;99.90;;;;;;4952475;28;20070;-51
2023/06/25 06:59:01;;;;;;;20.92;16.08;;;22.10;99.90;;;;;;4951898;28;20043;-48
2023/06/25 07:01:27;;;;;;;19.85;17.38;;;22.20;99.90;;;;;;4952449;28;20050;-50
2023/06/25 07:03:53;;;;;;;19.20;16.25;;;22.30;99.90;;;;;;4952373;28;20390;-46
2023/06/25 07:06:20;;;;;;;19.45;16.17;;;22.30;99.90;;;;;;4952277;28;20039;-47
2023/06/25 07:08:46;;;;;;;18.08;16.20;;;22.40;99.90;;;;;;4952086;28;20047;-52
2023/06/25 07:11:13;;;;;;;18.00;15.43;;;22.50;99.90;;;;;;4934953;28;20066;-50
2023/06/25 07:13:38;;;;;;;18.63;16.38;;;22.50;99.90;;;;;;4934655;28;20053;-50
2023/06/25 07:16:04;;;;;;;18.13;15.00;;;22.60;99.90;;;;;;4934790;28;20047;-50
2023/06/25 07:18:30;;;;;;;20.33;16.02;;;22.70;99.90;;;;;;4952393;28;21854;-52
2023/06/25 07:20:56;;;;;;;21.13;16.50;;;22.80;99.90;;;;;;4950799;28;20418;-50
2023/06/25 07:23:21;;;;;;;19.15;14.68;;;22.90;99.90;;;;;;4952170;28;20042;-48
2023/06/25 07:25:47;;;;;;;18.25;15.48;;;22.90;99.90;;;;;;4965938;28;20042;-49
2023/06/25 07:28:13;;;;;;;19.35;15.07;;;23.00;99.90;;;;;;4971942;28;20371;-50
2023/06/25 07:30:39;;;;;;;15.75;13.77;;;23.10;99.90;;;;;;4975019;28;20114;-49
2023/06/25 07:33:04;;;;;;;16.35;14.23;;;23.10;99.90;;;;;;4939441;28;20438;-50
2023/06/25 07:35:30;;;;;;;18.00;14.10;;;23.10;99.90;;;;;;4955552;28;20102;-49
2023/06/25 07:37:56;;;;;;;16.95;13.77;;;23.30;99.90;;;;;;4970084;28;20483;-50
2023/06/25 07:40:21;;;;;;;17.38;13.73;;;23.30;99.90;;;;;;4963273;28;20315;-50
2023/06/25 07:42:47;;;;;;;17.88;13.80;;;23.40;99.90;;;;;;4955058;28;20150;-52
2023/06/25 07:45:13;;;;;;;18.58;12.73;;;23.50;99.90;;;;;;4955178;28;20098;-47
2023/06/25 07:47:39;;;;;;;15.25;11.98;;;23.60;99.90;;;;;;4939915;28;20051;-50
2023/06/25 07:50:05;;;;;;;13.90;11.80;;;23.70;99.90;;;;;;4974463;28;20031;-49
2023/06/25 07:52:31;;;;;;;13.55;11.68;;;23.80;99.90;;;;;;4955867;28;20475;-48
2023/06/25 07:54:57;;;;;;;15.15;12.00;;;23.90;99.90;;;;;;4962366;28;20047;-49
2023/06/25 07:57:22;;;;;;;14.77;11.60;;;23.90;99.90;;;;;;4962020;28;20050;-50
2023/06/25 07:59:48;;;;;;;16.20;12.07;;;24.00;99.90;;;;;;4938012;28;20051;-50
2023/06/25 08:02:14;;;;;;;14.15;12.02;;;24.10;99.90;;;;;;4972536;28;20050;-48
2023/06/25 08:04:40;;;;;;;11.30;9.40;;;24.10;99.90;;;;;;4938427;28;20078;-50
2023/06/25 08:07:05;;;;;;;12.07;8.98;;;24.20;99.90;;;;;;4960504;28;20379;-50
2023/06/25 08:09:31;;;;;;;12.00;9.25;;;24.20;99.90;;;;;;4939207;28;20043;-47
2023/06/25 08:11:57;;;;;;;14.40;9.35;;;24.30;99.90;;;;;;4954921;28;20079;-49
2023/06/25 08:14:23;;;;;;;9.60;7.90;;;24.30;99.90;;;;;;4954479;28;20467;-50
2023/06/25 08:16:49;;;;;;;10.75;8.70;;;24.40;99.90;;;;;;4954382;28;20082;-49
2023/06/25 08:19:14;;;;;;;9.60;7.78;;;24.50;99.90;;;;;;4954727;28;20100;-49
2023/06/25 08:21:40;;;;;;;10.88;7.47;;;24.50;99.90;;;;;;4937257;28;20043;-46
2023/06/25 08:24:06;;;;;;;10.45;6.60;;;24.60;99.90;;;;;;4955191;28;20042;-49
2023/06/25 08:26:32;;;;;;;9.27;6.65;;;24.60;99.90;;;;;;4973642;28;20130;-48
2023/06/25 08:28:57;;;;;;;8.45;5.82;;;24.70;99.90;;;;;;4973498;28;20510;-49
2023/06/25 08:31:23;;;;;;;8.90;4.93;;;24.80;99.90;;;;;;4973495;28;20071;-48
2023/06/25 08:33:49;;;;;;;7.57;5.20;;;24.90;99.90;;;;;;4973770;28;20093;-47
2023/06/25 08:36:14;;;;;;;8.90;5.85;;;25.00;99.90;;;;;;4973837;28;20038;-50
2023/06/25 08:38:40;;;;;;;7.93;6.20;;;25.00;99.90;;;;;;4937331;28;20550;-51
2023/06/25 08:41:06;;;;;;;8.50;5.90;;;25.10;99.90;;;;;;4953564;28;20042;-50
2023/06/25 08:43:32;;;;;;;8.13;5.82;;;25.20;99.90;;;;;;4960674;28;20470;-50
2023/06/25 08:45:57;;;;;;;8.55;6.22;;;25.30;99.70;;;;;;4961829;28;20051;-50
2023/06/25 08:48:23;;;;;;;7.03;5.03;;;25.30;99.80;;;;;;4954173;28;20039;-49
2023/06/25 08:51:06;;;;;;;5.88;4.45;;;25.40;99.40;;;;;;4954096;28;20043;-52
2023/06/25 08:53:32;;;;;;;10.27;6.13;;;25.50;98.60;;;;;;4953853;28;20035;-47
2023/06/25 08:56:00;;;;;;;9.07;6.40;;;25.60;98.90;;;;;;4953765;28;20049;-52
2023/06/25 08:58:26;;;;;;;9.95;6.13;;;25.70;98.90;;;;;;4953774;28;20042;-48
2023/06/25 09:00:52;;;;;;;8.48;5.78;;;25.80;98.60;;;;;;4954155;28;20042;-50
2023/06/25 09:03:18;;;;;;;10.15;6.57;;;25.80;98.70;;;;;;4954075;28;20043;-50
2023/06/25 09:05:54;;;;;;;7.90;5.50;;;25.90;98.40;;;;;;4952781;28;20054;-48
2023/06/25 09:08:24;;;;;;;10.15;5.97;;;26.00;98.90;;;;;;4954099;28;20031;-48
2023/06/25 09:10:52;;;;;;;6.97;4.82;;;26.00;98.10;;;;;;4952762;28;20190;-47
2023/06/25 09:13:22;;;;;;;7.55;5.10;;;26.10;98.30;;;;;;4936196;28;20077;-48
2023/06/25 09:15:48;;;;;;;6.55;4.38;;;26.30;98.10;;;;;;4953710;28;20098;-49
2023/06/25 09:18:14;;;;;;;7.85;5.50;;;26.60;97.80;;;;;;4936267;28;20171;-49
2023/06/25 09:20:47;;;;;;;9.40;5.47;;;26.80;97.20;;;;;;4953764;28;20527;-48
2023/06/25 09:23:18;;;;;;;8.95;5.40;;;27.00;96.80;;;;;;4953781;28;20506;-49
2023/06/25 09:25:44;;;;;;;9.32;5.18;;;27.10;96.60;;;;;;4953513;28;20118;-51
2023/06/25 09:28:10;;;;;;;7.88;5.20;;;27.20;96.50;;;;;;4953367;28;20122;-50
2023/06/25 09:30:38;;;;;;;10.18;5.47;;;27.30;96.20;;;;;;4953482;28;20050;-48
2023/06/25 09:33:05;;;;;;;8.48;5.57;;;27.40;95.60;;;;;;4935882;28;20055;-47
2023/06/25 09:35:31;;;;;;;8.73;5.60;;;27.50;95.50;;;;;;4953510;28;20539;-48
2023/06/25 09:37:57;;;;;;;9.02;5.75;;;27.60;95.80;;;;;;4967699;28;20039;-50
2023/06/25 09:40:22;;;;;;;10.85;5.90;;;27.70;95.40;;;;;;4972523;28;20063;-50
2023/06/25 09:42:53;;;;;;;12.27;5.05;;;27.90;95.10;;;;;;4937387;28;20051;-50
2023/06/25 09:45:21;;;;;;;8.90;5.63;;;28.00;94.90;;;;;;4919960;28;20514;-50
2023/06/25 09:47:48;;;;;;;7.75;5.35;;;28.10;94.60;;;;;;4953463;28;20050;-51
2023/06/25 09:50:19;;;;;;;10.85;5.13;;;28.20;94.90;;;;;;4952633;28;20082;-50
2023/06/25 09:52:56;;;;;;;10.50;5.20;;;28.20;93.80;;;;;;4953276;28;20046;-51
2023/06/25 09:55:23;;;;;;;7.35;4.70;;;28.40;94.00;;;;;;4966824;28;20047;-48
2023/06/25 09:57:50;;;;;;;7.93;4.60;;;28.40;94.00;;;;;;4936283;28;20063;-49
2023/06/25 10:00:17;;;;;;;7.03;4.45;;;28.50;93.60;;;;;;4959095;28;20494;-50
2023/06/25 10:02:44;;;;;;;8.95;4.70;;;28.60;93.20;;;;;;4972346;28;20125;-49
2023/06/25 10:05:11;;;;;;;7.43;4.25;;;28.60;92.70;;;;;;4971912;28;20043;-49
2023/06/25 10:07:37;;;;;;;8.73;4.20;;;28.80;92.40;;;;;;4935467;28;20118;-50
2023/06/25 10:10:03;;;;;;;8.77;4.63;;;28.80;92.60;;;;;;4952975;28;20065;-48
2023/06/25 10:12:33;;;;;;;7.68;4.55;;;28.80;92.50;;;;;;4935648;28;20058;-53
2023/06/25 10:15:01;;;;;;;7.85;4.07;;;28.80;92.40;;;;;;4970191;28;20125;-52
2023/06/25 10:17:27;;;;;;;9.60;4.10;;;28.80;91.40;;;;;;4954798;28;20046;-49
2023/06/25 10:19:56;;;;;;;6.95;4.00;;;28.80;91.30;;;;;;4952285;28;20105;-48
2023/06/25 10:22:23;;;;;;;5.47;3.67;;;28.80;91.50;;;;;;4972094;28;20042;-50
2023/06/25 10:24:50;;;;;;;6.25;3.90;;;28.90;91.70;;;;;;4952625;28;20043;-46
2023/06/25 10:27:34;;;;;;;6.35;3.67;;;29.00;91.50;;;;;;4952834;28;20110;-51
2023/06/25 10:30:11;;;;;;;5.95;3.70;;;29.10;91.00;;;;;;4935442;28;20098;-49
2023/06/25 10:32:41;;;;;;;6.10;3.92;;;29.10;91.00;;;;;;4963242;28;20070;-50
2023/06/25 10:35:07;;;;;;;6.63;3.95;;;29.20;91.00;;;;;;4971878;28;20042;-49
2023/06/25 10:37:35;;;;;;;6.65;4.43;;;29.20;91.00;;;;;;4933756;28;20118;-51
2023/06/25 10:40:10;;;;;;;6.03;3.58;;;29.30;91.50;;;;;;4952552;28;20526;-47
2023/06/25 10:42:37;;;;;;;7.95;4.20;;;29.30;92.10;;;;;;4935160;28;20126;-49
2023/06/25 10:45:03;;;;;;;6.03;3.70;;;29.30;92.00;;;;;;4951837;28;20072;-47
2023/06/25 10:47:29;;;;;;;7.93;4.70;;;29.40;92.10;;;;;;4961169;28;20076;-51
2023/06/25 10:49:55;;;;;;;6.70;4.30;;;29.50;91.70;;;;;;4937735;28;20132;-52
2023/06/25 10:52:21;;;;;;;6.82;4.30;;;29.60;91.90;;;;;;4971189;28;20034;-50
2023/06/25 10:54:47;;;;;;;7.78;4.25;;;29.60;91.90;;;;;;4971613;28;20078;-47
2023/06/25 10:57:15;;;;;;;7.03;4.18;;;29.70;92.00;;;;;;4936106;28;20051;-48
2023/06/25 10:59:45;;;;;;;6.43;4.15;;;29.80;91.70;;;;;;4952091;28;20455;-49
2023/06/25 11:02:17;;;;;;;6.75;3.67;;;29.80;91.60;;;;;;4951709;28;20066;-48
2023/06/25 11:04:53;;;;;;;7.28;3.70;;;29.80;91.20;;;;;;4955670;28;20059;-48
2023/06/25 11:07:20;;;;;;;5.45;3.50;;;29.90;91.50;;;;;;4956123;28;20031;-51
2023/06/25 11:09:50;;;;;;;5.18;3.53;;;29.90;91.00;;;;;;4956173;28;20479;-50
2023/06/25 11:12:17;;;;;;;6.47;3.55;;;30.00;90.80;;;;;;4955505;28;20138;-52
2023/06/25 11:14:44;;;;;;;5.75;3.70;;;30.00;90.70;;;;;;4968794;28;20054;-45
2023/06/25 11:17:13;;;;;;;6.10;3.67;;;30.10;91.10;;;;;;4974058;28;20131;-48
2023/06/25 11:19:38;;;;;;;6.00;3.75;;;30.10;91.40;;;;;;4956385;28;20047;-49
2023/06/25 11:22:07;;;;;;;6.57;3.90;;;30.20;91.50;;;;;;4972664;28;20041;-48
2023/06/25 11:24:39;;;;;;;6.00;3.67;;;30.30;90.80;;;;;;4975083;28;20042;-49
2023/06/25 11:27:05;;;;;;;5.03;3.72;;;30.50;90.40;;;;;;4975064;28;20074;-50
2023/06/25 11:29:39;;;;;;;6.20;4.30;;;30.50;90.80;;;;;;4974732;28;20050;-49
2023/06/25 11:32:08;;;;;;;7.18;4.55;;;30.60;91.30;;;;;;4974835;28;20454;-49
2023/06/25 11:34:34;;;;;;;12.57;5.03;;;30.70;90.50;;;;;;4974625;28;20058;-47
2023/06/25 11:37:12;;;;;;;9.00;6.05;;;30.70;90.90;;;;;;4974805;28;20047;-49
2023/06/25 11:39:49;;;;;;;11.98;7.40;;;30.80;90.90;;;;;;4970097;28;20121;-51
2023/06/25 11:42:21;;;;;;;10.43;7.93;;;30.90;90.10;;;;;;4955416;28;20518;-52
2023/06/25 11:44:58;;;;;;;10.00;6.53;;;30.90;90.40;;;;;;4954696;28;20126;-49
2023/06/25 11:47:24;;;;;;;8.10;5.95;;;31.00;90.10;;;;;;4953239;28;20063;-53
2023/06/25 11:49:54;;;;;;;6.70;4.75;;;31.10;90.10;;;;;;4955224;28;20046;-52
2023/06/25 11:52:20;;;;;;;6.65;4.45;;;31.20;90.20;;;;;;4954922;28;20039;-51
2023/06/25 11:54:46;;;;;;;6.63;4.35;;;31.20;89.40;;;;;;4960458;28;20035;-49
2023/06/25 11:57:11;;;;;;;6.93;5.40;;;31.30;88.60;;;;;;4974223;28;20074;-48
2023/06/25 11:59:37;;;;;;;9.90;5.03;;;31.40;88.80;;;;;;4974620;28;20483;-49
2023/06/25 12:02:03;;;;;;;7.63;4.30;;;31.50;89.90;;;;;;4974316;28;20556;-50
2023/06/25 12:04:28;;;;;;;8.23;4.45;;;31.60;89.10;;;;;;4974196;28;20443;-50
2023/06/25 12:06:54;;;;;;;6.57;4.50;;;31.70;88.60;;;;;;4960780;28;20085;-49
2023/06/25 12:09:20;;;;;;;6.20;4.07;;;31.70;89.20;;;;;;4971727;28;20491;-48
2023/06/25 12:11:46;;;;;;;9.45;4.32;;;31.80;88.30;;;;;;4961961;28;20379;-49
2023/06/25 12:14:12;;;;;;;6.30;3.67;;;31.90;87.60;;;;;;4954445;28;20375;-49
2023/06/25 12:16:38;;;;;;;5.82;4.28;;;32.00;89.20;;;;;;4938629;28;20039;-48
2023/06/25 12:19:06;;;;;;;6.35;3.80;;;32.20;88.20;;;;;;4974218;28;20042;-47
2023/06/25 12:21:32;;;;;;;7.55;4.20;;;32.20;87.70;;;;;;4973481;28;20043;-47
2023/06/25 12:24:00;;;;;;;6.75;4.53;;;32.20;88.50;;;;;;4974053;28;20042;-50
2023/06/25 12:26:25;;;;;;;6.57;4.43;;;32.30;85.90;;;;;;4974055;28;20038;-51
2023/06/25 12:28:51;;;;;;;7.07;4.32;;;32.30;84.30;;;;;;4937969;28;20039;-49
2023/06/25 12:31:17;;;;;;;6.65;4.03;;;32.40;85.40;;;;;;4954577;28;20050;-48
2023/06/25 12:33:43;;;;;;;7.53;4.07;;;32.50;85.80;;;;;;4958030;28;20054;-52